Ashmont, Canada
Current Conditions -  °F | °C
As of 1:00 PM on Wednesday 26 Nov 2014 (Local Time) from CYOD Reporting Station
Snow Showers Snow Showers  
Wind Chill: -8°   Ceiling: 3000
Heat Index:   Visibility: 15mi
Dew Point: -6°   Wind: 5mph
Humidity: 72%   Direction: 110°ESE
Pressure: 30.27"   Gusts: NA
Location:  54.13°N, 111.57°W
Report Text: CYOD 262000Z 11004KT 15SM -SHSN OVC030 M17/M21 A3027 RMK SC8SLP305
Loading
Personal Weather Stations






























Interactive Weather Map New forecast layout! Learn more

10-Day Weather Forecast

Advertisements
Track Severe Weather on mobile